createdAt,value
2022-11-05T00:00:37.805Z,69.38
2022-11-05T00:03:29.479Z,69.67
2022-11-05T00:06:15.928Z,69.30
2022-11-05T00:09:02.366Z,69.42
2022-11-05T00:11:45.148Z,69.56
2022-11-05T00:14:33.552Z,69.41
2022-11-05T00:17:02.670Z,69.62
2022-11-05T00:19:31.984Z,69.51
2022-11-05T00:22:30.082Z,69.67
2022-11-05T00:25:16.990Z,69.47
2022-11-05T00:27:46.523Z,69.47
2022-11-05T00:30:18.553Z,69.47
2022-11-05T00:32:47.949Z,69.40
2022-11-05T00:35:17.664Z,69.67
2022-11-05T00:37:50.114Z,69.48
2022-11-05T00:40:20.242Z,69.69
2022-11-05T00:43:21.401Z,69.38
2022-11-05T00:45:52.186Z,69.44
2022-11-05T00:48:38.565Z,69.69
2022-11-05T00:51:07.869Z,69.60
2022-11-05T00:53:36.936Z,69.68
2022-11-05T00:56:06.348Z,69.61
2022-11-05T00:58:35.363Z,69.54
2022-11-05T01:01:06.270Z,69.63
2022-11-05T01:03:36.384Z,69.72
2022-11-05T01:06:09.424Z,69.67
2022-11-05T01:08:38.733Z,69.71
2022-11-05T01:11:09.689Z,69.57
2022-11-05T01:13:39.015Z,69.71
2022-11-05T01:16:10.578Z,69.62
2022-11-05T01:18:39.651Z,69.57
2022-11-05T01:21:12.340Z,69.96
2022-11-05T01:23:41.441Z,69.95
2022-11-05T01:26:10.876Z,69.88
2022-11-05T01:28:39.976Z,70.07
2022-11-05T01:31:10.904Z,69.66
2022-11-05T01:33:39.917Z,70.01
2022-11-05T01:36:09.696Z,69.77
2022-11-05T01:38:38.768Z,70.01
2022-11-05T01:41:08.241Z,69.41
2022-11-05T01:43:46.591Z,69.69
2022-11-05T01:46:17.408Z,69.91
2022-11-05T01:48:46.400Z,70.00
2022-11-05T01:51:15.930Z,70.03
2022-11-05T01:53:45.939Z,69.91
2022-11-05T01:56:15.799Z,69.65
2022-11-05T01:58:46.631Z,70.04
2022-11-05T02:01:15.981Z,70.07
2022-11-05T02:03:46.959Z,69.68
2022-11-05T02:06:16.506Z,70.08
2022-11-05T02:08:50.918Z,69.96
2022-11-05T02:11:20.427Z,70.09
2022-11-05T02:13:49.970Z,69.72
2022-11-05T02:16:21.117Z,69.92
2022-11-05T02:18:54.034Z,69.83
2022-11-05T02:21:44.068Z,69.95
2022-11-05T02:24:24.641Z,69.83
2022-11-05T02:26:59.577Z,70.34
2022-11-05T02:29:49.309Z,70.13
2022-11-05T02:32:21.393Z,70.10
2022-11-05T02:34:52.043Z,69.99
2022-11-05T02:37:23.535Z,70.38
2022-11-05T02:39:54.334Z,70.15
2022-11-05T02:42:25.582Z,70.20
2022-11-05T02:44:56.081Z,70.18
2022-11-05T02:47:27.369Z,70.00
2022-11-05T02:49:59.265Z,69.99
2022-11-05T02:52:29.955Z,70.11
2022-11-05T02:54:59.788Z,70.18
2022-11-05T02:57:30.101Z,70.44
2022-11-05T03:00:02.882Z,70.36
2022-11-05T03:02:33.482Z,70.26
2022-11-05T03:05:02.854Z,70.35
2022-11-05T03:07:38.016Z,70.30
2022-11-05T03:10:11.026Z,70.33
2022-11-05T03:12:43.144Z,70.10
2022-11-05T03:15:17.046Z,70.49
2022-11-05T03:17:53.295Z,70.39
2022-11-05T03:20:23.220Z,69.89
2022-11-05T03:22:53.636Z,70.14
2022-11-05T03:25:23.455Z,70.39
2022-11-05T03:27:54.245Z,70.42
2022-11-05T03:30:25.144Z,70.21
2022-11-05T03:32:57.609Z,70.39
2022-11-05T03:35:27.299Z,70.48
2022-11-05T03:37:57.892Z,70.51
2022-11-05T03:40:27.364Z,70.32
2022-11-05T03:42:56.920Z,70.46
2022-11-05T03:45:27.039Z,70.23
2022-11-05T03:47:58.255Z,70.54
2022-11-05T03:50:29.277Z,70.17
2022-11-05T03:52:59.389Z,70.59
2022-11-05T03:55:30.003Z,70.32
2022-11-05T03:57:59.013Z,70.64
2022-11-05T04:00:28.495Z,70.34
2022-11-05T04:02:58.986Z,70.24
2022-11-05T04:05:28.394Z,70.63
2022-11-05T04:08:14.893Z,70.50
2022-11-05T04:11:01.152Z,70.45
2022-11-05T04:13:30.261Z,70.61
2022-11-05T04:16:17.351Z,70.46
2022-11-05T04:18:47.819Z,70.73
2022-11-05T04:21:34.445Z,70.87
2022-11-05T04:24:12.960Z,70.61
2022-11-05T04:26:43.884Z,70.66
2022-11-05T04:29:30.573Z,70.73
2022-11-05T04:32:00.011Z,70.38
2022-11-05T04:34:30.433Z,70.77
2022-11-05T04:36:59.791Z,70.89
2022-11-05T04:39:28.791Z,70.84
2022-11-05T04:41:58.177Z,70.70
2022-11-05T04:44:27.219Z,70.79
2022-11-05T04:46:56.679Z,70.51
2022-11-05T04:49:25.745Z,70.72
2022-11-05T04:51:56.521Z,70.54
2022-11-05T04:54:25.582Z,70.80
2022-11-05T04:56:54.900Z,70.67
2022-11-05T04:59:23.992Z,70.94
2022-11-05T05:01:53.591Z,70.95
2022-11-05T05:04:22.747Z,70.69
2022-11-05T05:06:52.127Z,70.98
2022-11-05T05:09:22.581Z,70.94
2022-11-05T05:11:52.029Z,70.97
2022-11-05T05:14:21.132Z,70.64
2022-11-05T05:16:50.470Z,70.86
2022-11-05T05:19:19.549Z,70.76
2022-11-05T05:21:47.838Z,71.32
2022-11-05T05:24:18.763Z,71.05
2022-11-05T05:26:50.243Z,71.12
2022-11-05T05:29:19.508Z,70.87
2022-11-05T05:31:48.913Z,70.83
2022-11-05T05:34:17.930Z,71.20
2022-11-05T05:36:47.363Z,70.80
2022-11-05T05:39:16.416Z,70.80
2022-11-05T05:41:45.816Z,70.67
2022-11-05T05:44:16.316Z,71.04
2022-11-05T05:46:45.796Z,70.77
2022-11-05T05:49:14.974Z,70.81
2022-11-05T05:51:44.505Z,70.93
2022-11-05T05:54:13.705Z,70.89
2022-11-05T05:56:44.120Z,70.79
2022-11-05T05:59:13.332Z,71.05
2022-11-05T06:01:44.259Z,70.71
2022-11-05T06:04:13.926Z,70.78
2022-11-05T06:06:47.044Z,70.85
2022-11-05T06:09:16.337Z,70.93
2022-11-05T06:11:45.826Z,70.47
2022-11-05T06:14:14.950Z,71.08
2022-11-05T06:16:45.789Z,70.84
2022-11-05T06:19:14.834Z,71.10
2022-11-05T06:21:44.272Z,70.92
2022-11-05T06:24:13.285Z,70.90
2022-11-05T06:26:43.598Z,70.65
2022-11-05T06:29:12.643Z,70.83
2022-11-05T06:31:42.121Z,71.00
2022-11-05T06:34:12.601Z,71.21
2022-11-05T06:36:42.015Z,70.95
2022-11-05T06:39:11.334Z,70.74
2022-11-05T06:42:04.095Z,70.74
2022-11-05T06:44:29.703Z,70.69
2022-11-05T06:46:59.293Z,70.80
2022-11-05T06:49:29.746Z,70.75
2022-11-05T06:51:59.369Z,70.87
2022-11-05T06:54:28.837Z,71.06
2022-11-05T06:56:58.245Z,71.17
2022-11-05T06:59:27.314Z,71.00
2022-11-05T07:01:56.692Z,71.21
2022-11-05T07:04:25.910Z,71.28
2022-11-05T07:06:56.851Z,70.73
2022-11-05T07:09:25.868Z,70.76
2022-11-05T07:11:55.281Z,71.08
2022-11-05T07:14:24.292Z,70.96
2022-11-05T07:16:53.678Z,71.21
2022-11-05T07:19:22.743Z,70.98
2022-11-05T07:21:52.588Z,71.46
2022-11-05T07:24:23.053Z,71.19
2022-11-05T07:26:52.494Z,71.02
2022-11-05T07:29:21.577Z,71.34
2022-11-05T07:31:51.131Z,71.15
2022-11-05T07:34:20.114Z,71.20
2022-11-05T07:36:49.519Z,71.14
2022-11-05T07:39:18.506Z,71.01
2022-11-05T07:41:49.412Z,71.27
2022-11-05T07:44:18.478Z,71.16
2022-11-05T07:46:47.995Z,71.18
2022-11-05T07:49:16.976Z,71.16
2022-11-05T07:51:46.403Z,71.19
2022-11-05T07:54:15.493Z,71.34
2022-11-05T07:56:44.914Z,71.36
2022-11-05T07:59:15.374Z,71.00
2022-11-05T08:01:44.940Z,71.34
2022-11-05T08:04:14.230Z,71.16
2022-11-05T08:06:43.776Z,71.23
2022-11-05T08:09:12.830Z,71.49
2022-11-05T08:11:42.250Z,70.97
2022-11-05T08:14:11.404Z,71.23
2022-11-05T08:16:42.158Z,71.23
2022-11-05T08:19:11.247Z,71.24
2022-11-05T08:21:40.602Z,71.33
2022-11-05T08:24:10.127Z,71.32
2022-11-05T08:26:39.563Z,71.31
2022-11-05T08:29:08.591Z,71.41
2022-11-05T08:31:38.343Z,71.32
2022-11-05T08:34:08.895Z,71.26
2022-11-05T08:36:40.700Z,71.51
2022-11-05T08:39:15.830Z,71.40
2022-11-05T08:41:47.248Z,71.84
2022-11-05T08:44:16.370Z,71.58
2022-11-05T08:46:45.797Z,74.65
2022-11-05T08:49:16.255Z,72.32
2022-11-05T08:51:45.692Z,72.24
2022-11-05T08:54:14.712Z,72.19
2022-11-05T08:56:44.086Z,71.87
2022-11-05T08:59:13.133Z,71.60
2022-11-05T09:01:42.917Z,71.64
2022-11-05T09:04:12.041Z,71.58
2022-11-05T09:06:42.892Z,71.50
2022-11-05T09:09:12.002Z,71.52
2022-11-05T09:12:09.898Z,71.70
2022-11-05T09:14:31.662Z,71.46
2022-11-05T09:17:01.056Z,71.52
2022-11-05T09:19:30.116Z,71.60
2022-11-05T09:22:00.951Z,71.89
2022-11-05T09:24:30.156Z,71.84
2022-11-05T09:26:59.561Z,71.80
2022-11-05T09:29:28.619Z,71.69
2022-11-05T09:31:58.007Z,71.56
2022-11-05T09:34:27.064Z,71.98
2022-11-05T09:36:56.441Z,71.89
2022-11-05T09:39:26.959Z,71.87
2022-11-05T09:41:56.763Z,71.83
2022-11-05T09:44:26.937Z,72.04
2022-11-05T09:46:56.619Z,72.22
2022-11-05T09:49:26.727Z,71.93
2022-11-05T09:51:57.194Z,71.96
2022-11-05T09:54:28.815Z,72.40
2022-11-05T09:56:58.350Z,72.69
2022-11-05T09:59:29.157Z,72.35
2022-11-05T10:02:00.675Z,72.51
2022-11-05T10:04:31.254Z,79.83
2022-11-05T10:07:01.195Z,81.92
2022-11-05T10:09:32.957Z,78.30
2022-11-05T10:12:04.079Z,78.70
2022-11-05T10:14:33.874Z,80.47
2022-11-05T10:17:10.183Z,79.71
2022-11-05T10:19:40.916Z,83.14
2022-11-05T10:22:13.381Z,78.26
2022-11-05T10:24:44.559Z,81.72
2022-11-05T10:27:16.153Z,79.73
2022-11-05T10:29:45.257Z,80.01
2022-11-05T10:32:16.598Z,82.46
2022-11-05T10:34:45.714Z,79.84
2022-11-05T10:37:15.062Z,77.27
2022-11-05T10:39:45.626Z,77.18
2022-11-05T10:42:21.857Z,78.86
2022-11-05T10:44:53.261Z,79.31
2022-11-05T10:47:31.253Z,79.54
2022-11-05T10:50:01.211Z,80.29
2022-11-05T10:52:33.511Z,80.26
2022-11-05T10:55:16.500Z,81.68
2022-11-05T10:57:46.248Z,79.52
2022-11-05T11:00:22.807Z,81.32
2022-11-05T11:02:55.661Z,81.54
2022-11-05T11:05:26.932Z,79.26
2022-11-05T11:08:06.148Z,76.64
2022-11-05T11:10:38.380Z,77.09
2022-11-05T11:13:07.721Z,79.45
2022-11-05T11:15:37.448Z,79.73
2022-11-05T11:18:19.640Z,81.45
2022-11-05T11:20:48.770Z,79.88
2022-11-05T11:23:18.260Z,80.19
2022-11-05T11:25:49.635Z,80.58
2022-11-05T11:28:22.840Z,81.03
2022-11-05T11:30:53.029Z,79.03
2022-11-05T11:33:23.258Z,81.15
2022-11-05T11:35:52.352Z,81.31
2022-11-05T11:38:21.752Z,81.28
2022-11-05T11:40:53.644Z,81.51
2022-11-05T11:43:25.652Z,81.72
2022-11-05T11:45:57.349Z,81.02
2022-11-05T11:48:30.667Z,79.10
2022-11-05T11:51:00.108Z,79.15
2022-11-05T11:53:31.105Z,79.39
2022-11-05T11:56:02.816Z,77.71
2022-11-05T11:58:45.759Z,79.45
2022-11-05T12:01:32.848Z,79.22
2022-11-05T12:04:04.466Z,76.77
2022-11-05T12:06:35.200Z,77.30
2022-11-05T12:09:07.119Z,76.91
2022-11-05T12:11:39.548Z,77.19
2022-11-05T12:14:11.544Z,76.93
2022-11-05T12:16:59.935Z,75.39
2022-11-05T12:19:44.131Z,76.05
2022-11-05T12:22:15.428Z,76.51
2022-11-05T12:24:57.150Z,74.90
2022-11-05T12:27:31.847Z,76.56
2022-11-05T12:30:01.526Z,77.79
2022-11-05T12:32:33.978Z,77.17
2022-11-05T12:35:06.715Z,75.32
2022-11-05T12:37:37.860Z,74.43
2022-11-05T12:40:10.976Z,74.24
2022-11-05T12:42:55.988Z,75.67
2022-11-05T12:45:28.753Z,76.11
2022-11-05T12:48:04.111Z,74.93
2022-11-05T12:54:55.582Z,74.14
2022-11-05T13:00:57.346Z,75.37
2022-11-05T13:03:54.570Z,75.30
2022-11-05T13:18:50.118Z,75.36
2022-11-05T13:30:14.074Z,79.81
2022-11-05T13:32:43.524Z,80.18
2022-11-05T13:35:16.009Z,80.52
2022-11-05T13:38:03.139Z,78.49
2022-11-05T13:40:35.035Z,79.17
2022-11-05T13:43:08.376Z,79.07
2022-11-05T13:45:43.998Z,77.87
2022-11-05T13:48:27.804Z,77.87
2022-11-05T13:51:03.510Z,78.54
2022-11-05T13:53:41.347Z,76.72
2022-11-05T13:56:13.919Z,75.39
2022-11-05T13:58:47.971Z,74.99
2022-11-05T14:01:21.335Z,75.17
2022-11-05T14:03:51.780Z,74.62
2022-11-05T14:06:24.097Z,74.04
2022-11-05T14:08:53.148Z,73.86
2022-11-05T14:11:23.152Z,73.88
2022-11-05T14:13:53.164Z,73.76
2022-11-05T14:16:25.107Z,73.84
2022-11-05T14:18:55.926Z,73.69
2022-11-05T14:21:32.918Z,73.70
2022-11-05T14:24:04.168Z,73.73
2022-11-05T14:26:33.711Z,73.72
2022-11-05T14:29:32.040Z,73.68
2022-11-05T14:32:09.855Z,73.59
2022-11-05T14:34:43.552Z,73.43
2022-11-05T14:37:30.600Z,73.24
2022-11-05T14:40:05.170Z,73.31
2022-11-05T14:42:34.535Z,73.14
2022-11-05T14:45:05.761Z,73.39
2022-11-05T14:47:37.245Z,73.39
2022-11-05T14:50:11.665Z,73.08
2022-11-05T14:52:41.299Z,74.20
2022-11-05T14:55:16.448Z,73.84
2022-11-05T14:58:04.453Z,73.58
2022-11-05T15:00:44.053Z,72.95
2022-11-05T15:03:34.336Z,72.93
2022-11-05T15:06:18.123Z,72.97
2022-11-05T15:08:56.393Z,72.97
2022-11-05T15:11:27.188Z,72.92
2022-11-05T15:13:59.283Z,72.98
2022-11-05T15:16:31.687Z,72.90
2022-11-05T15:19:02.156Z,73.10
2022-11-05T15:21:32.045Z,73.01
2022-11-05T15:24:01.079Z,72.71
2022-11-05T15:26:33.923Z,72.69
2022-11-05T15:29:03.168Z,72.77
2022-11-05T15:31:33.544Z,72.64
2022-11-05T15:34:26.727Z,72.88
2022-11-05T15:36:58.024Z,72.82
2022-11-05T15:39:31.369Z,72.70
2022-11-05T15:42:02.121Z,72.55
2022-11-05T15:44:31.850Z,72.76
2022-11-05T15:47:17.690Z,73.31
2022-11-05T15:49:47.728Z,73.37
2022-11-05T15:52:18.845Z,72.79
2022-11-05T15:54:47.988Z,72.54
2022-11-05T15:57:21.518Z,72.51
2022-11-05T15:59:50.576Z,72.88
2022-11-05T16:02:25.360Z,72.76
2022-11-05T16:04:54.599Z,73.31
2022-11-05T16:07:25.416Z,74.58
2022-11-05T16:09:55.583Z,76.68
2022-11-05T16:12:27.091Z,74.16
2022-11-05T16:15:18.991Z,72.69
2022-11-05T16:17:50.109Z,72.35
2022-11-05T16:20:20.529Z,71.95
2022-11-05T16:22:52.272Z,71.95
2022-11-05T16:25:22.069Z,72.74
2022-11-05T16:27:51.416Z,73.07
2022-11-05T16:30:20.727Z,74.74
2022-11-05T16:32:50.043Z,76.24
2022-11-05T16:35:19.952Z,77.06
2022-11-05T16:37:52.008Z,74.56
2022-11-05T16:40:23.703Z,74.42
2022-11-05T16:42:53.422Z,73.05
2022-11-05T16:45:23.294Z,72.67
2022-11-05T16:47:52.819Z,72.09
2022-11-05T16:50:23.985Z,72.91
2022-11-05T16:52:53.491Z,72.30
2022-11-05T16:55:23.924Z,72.29
2022-11-05T16:57:53.854Z,72.07
2022-11-05T17:00:23.256Z,71.94
2022-11-05T17:02:52.862Z,72.39
2022-11-05T17:05:23.506Z,72.50
2022-11-05T17:07:52.975Z,72.91
2022-11-05T17:10:23.908Z,73.61
2022-11-05T17:12:53.296Z,73.13
2022-11-05T17:15:23.971Z,72.56
2022-11-05T17:17:53.587Z,72.30
2022-11-05T17:20:38.569Z,73.04
2022-11-05T17:23:10.319Z,73.45
2022-11-05T17:25:40.970Z,73.53
2022-11-05T17:28:10.699Z,72.60
2022-11-05T17:30:41.630Z,72.55
2022-11-05T17:33:12.176Z,72.24
2022-11-05T17:35:41.568Z,72.06
2022-11-05T17:38:11.172Z,71.71
2022-11-05T17:40:41.738Z,71.96
2022-11-05T17:43:11.637Z,71.71
2022-11-05T17:45:44.075Z,71.95
2022-11-05T17:48:13.703Z,71.89
2022-11-05T17:50:43.400Z,71.98
2022-11-05T17:53:13.264Z,71.83
2022-11-05T17:55:44.331Z,71.74
2022-11-05T17:58:13.750Z,71.76
2022-11-05T18:00:43.192Z,71.68
2022-11-05T18:03:12.980Z,72.43
2022-11-05T18:05:43.781Z,75.49
2022-11-05T18:08:19.888Z,73.83
2022-11-05T18:11:08.417Z,73.30
2022-11-05T18:13:56.811Z,75.34
2022-11-05T18:16:43.953Z,74.44
2022-11-05T18:19:18.938Z,74.48
2022-11-05T18:21:49.405Z,74.09
2022-11-05T18:24:29.513Z,76.19
2022-11-05T18:27:08.506Z,75.70
2022-11-05T18:29:49.754Z,76.84
2022-11-05T18:32:19.395Z,78.99
2022-11-05T18:34:49.034Z,76.76
2022-11-05T18:37:32.164Z,76.75
2022-11-05T18:40:03.373Z,76.61
2022-11-05T18:42:33.879Z,80.81
2022-11-05T18:45:06.279Z,77.80
2022-11-05T18:47:35.513Z,78.24
2022-11-05T18:50:10.596Z,80.88
2022-11-05T18:52:39.768Z,81.10
2022-11-05T18:55:09.699Z,80.94
2022-11-05T18:57:40.215Z,80.71
2022-11-05T19:00:10.335Z,80.45
2022-11-05T19:02:39.730Z,82.56
2022-11-05T19:05:28.465Z,83.07
2022-11-05T19:07:58.356Z,82.88
2022-11-05T19:10:27.828Z,83.72
2022-11-05T19:12:58.380Z,82.88
2022-11-05T19:15:27.772Z,82.83
2022-11-05T19:17:57.120Z,80.99
2022-11-05T19:20:26.518Z,79.19
2022-11-05T19:23:30.345Z,81.25
2022-11-05T19:26:01.188Z,81.13
2022-11-05T19:28:32.096Z,79.37
2022-11-05T19:31:01.589Z,81.12
2022-11-05T19:33:30.958Z,81.83
2022-11-05T19:36:00.670Z,81.20
2022-11-05T19:38:31.922Z,78.85
2022-11-05T19:41:04.232Z,80.37
2022-11-05T19:43:37.401Z,78.01
2022-11-05T19:46:08.728Z,79.56
2022-11-05T19:48:38.030Z,81.72
2022-11-05T19:51:07.886Z,82.80
2022-11-05T19:53:38.083Z,82.76
2022-11-05T19:56:08.050Z,82.95
2022-11-05T19:58:38.729Z,83.74
2022-11-05T20:01:08.401Z,82.71
2022-11-05T20:03:38.853Z,83.28
2022-11-05T20:06:09.681Z,83.93
2022-11-05T20:08:53.287Z,83.88
2022-11-05T20:11:28.580Z,82.27
2022-11-05T20:13:59.113Z,83.03
2022-11-05T20:16:29.267Z,83.86
2022-11-05T20:18:58.399Z,84.02
2022-11-05T20:21:27.952Z,84.23
2022-11-05T20:23:57.789Z,84.07
2022-11-05T20:26:27.442Z,83.81
2022-11-05T20:28:56.477Z,83.22
2022-11-05T20:31:27.420Z,83.50
2022-11-05T20:33:56.472Z,82.79
2022-11-05T20:36:26.348Z,82.36
2022-11-05T20:38:55.981Z,83.57
2022-11-05T20:41:25.709Z,84.62
2022-11-05T20:43:54.874Z,84.42
2022-11-05T20:46:24.452Z,84.89
2022-11-05T20:48:55.111Z,84.80
2022-11-05T20:51:25.512Z,84.83
2022-11-05T20:53:55.579Z,85.11
2022-11-05T20:56:26.616Z,85.39
2022-11-05T20:58:58.013Z,85.34
2022-11-05T21:01:27.657Z,85.44
2022-11-05T21:03:58.424Z,85.42
2022-11-05T21:06:27.847Z,85.59
2022-11-05T21:08:56.921Z,85.62
2022-11-05T21:11:26.331Z,85.82
2022-11-05T21:13:55.451Z,85.65
2022-11-05T21:16:24.928Z,85.86
2022-11-05T21:18:54.010Z,85.69
2022-11-05T21:21:24.884Z,85.64
2022-11-05T21:23:54.035Z,85.95
2022-11-05T21:26:23.500Z,85.13
2022-11-05T21:28:52.597Z,85.27
2022-11-05T21:31:21.950Z,85.60
2022-11-05T21:33:55.016Z,85.57
2022-11-05T21:36:26.272Z,85.56
2022-11-05T21:38:55.380Z,85.33
2022-11-05T21:41:24.748Z,85.42
2022-11-05T21:43:53.899Z,85.33
2022-11-05T21:46:23.424Z,85.12
2022-11-05T21:48:55.109Z,85.12
2022-11-05T21:51:42.178Z,85.07
2022-11-05T21:54:30.707Z,85.04
2022-11-05T21:57:17.601Z,85.43
2022-11-05T21:59:49.385Z,84.80
2022-11-05T22:02:20.024Z,84.87
2022-11-05T22:04:49.599Z,84.76
2022-11-05T22:07:20.125Z,85.06
2022-11-05T22:09:50.731Z,84.67
2022-11-05T22:12:20.248Z,84.99
2022-11-05T22:14:49.339Z,84.34
2022-11-05T22:17:18.877Z,84.40
2022-11-05T22:19:48.077Z,84.93
2022-11-05T22:22:17.610Z,84.71
2022-11-05T22:24:46.744Z,84.58
2022-11-05T22:27:18.555Z,84.45
2022-11-05T22:29:47.572Z,84.47
2022-11-05T22:32:17.129Z,84.56
2022-11-05T22:34:46.129Z,84.16
2022-11-05T22:37:15.571Z,84.49
2022-11-05T22:39:44.766Z,84.18
2022-11-05T22:42:14.307Z,84.27
2022-11-05T22:44:44.900Z,84.17
2022-11-05T22:47:14.321Z,84.36
2022-11-05T22:49:43.387Z,84.53
2022-11-05T22:52:12.994Z,84.47
2022-11-05T22:57:41.600Z,84.16
2022-11-05T23:00:15.643Z,84.34
2022-11-05T23:02:45.165Z,84.34
2022-11-05T23:05:15.960Z,84.09
2022-11-05T23:08:02.762Z,84.71
2022-11-05T23:10:49.163Z,84.33
2022-11-05T23:13:18.497Z,84.31
2022-11-05T23:16:06.572Z,84.43
2022-11-05T23:18:53.590Z,84.14
2022-11-05T23:21:39.863Z,83.92
2022-11-05T23:24:09.317Z,84.16
2022-11-05T23:26:54.158Z,83.86
2022-11-05T23:29:24.260Z,83.83
2022-11-05T23:32:12.429Z,84.16
2022-11-05T23:34:41.861Z,84.11
2022-11-05T23:37:28.336Z,84.17
2022-11-05T23:39:57.758Z,84.54
2022-11-05T23:42:44.141Z,84.25
2022-11-05T23:45:31.180Z,84.30
2022-11-05T23:48:17.475Z,84.74
2022-11-05T23:50:47.771Z,84.72
2022-11-05T23:53:16.845Z,84.48
2022-11-05T23:55:46.111Z,84.36
2022-11-05T23:58:15.477Z,84.32
